createdAt,value
2019-06-07T00:01:39.246Z,100428
2019-06-07T00:04:09.931Z,100422
2019-06-07T00:06:37.674Z,100423
2019-06-07T00:09:08.145Z,100417
2019-06-07T00:11:35.384Z,100416
2019-06-07T00:14:04.227Z,100421
2019-06-07T00:16:33.067Z,100419
2019-06-07T00:19:02.651Z,100422
2019-06-07T00:22:12.774Z,100424
2019-06-07T00:24:00.322Z,100413
2019-06-07T00:26:29.169Z,100411
2019-06-07T00:28:58.005Z,100410
2019-06-07T00:31:26.866Z,100407
2019-06-07T00:33:56.333Z,100404
2019-06-07T00:36:24.547Z,100400
2019-06-07T00:38:53.405Z,100394
2019-06-07T00:41:22.460Z,100394
2019-06-07T00:43:51.088Z,100392
2019-06-07T00:46:21.657Z,100399
2019-06-07T00:48:48.744Z,100400
2019-06-07T00:51:19.021Z,100405
2019-06-07T00:53:46.414Z,100399
2019-06-07T00:56:16.303Z,100398
2019-06-07T00:58:44.094Z,100391
2019-06-07T01:01:13.724Z,100392
2019-06-07T01:03:41.758Z,100387
2019-06-07T01:06:12.360Z,100391
2019-06-07T01:08:40.154Z,100393
2019-06-07T01:11:09.008Z,100391
2019-06-07T01:13:37.861Z,100383
2019-06-07T01:16:06.703Z,100381
2019-06-07T01:18:39.087Z,100381
2019-06-07T01:21:04.395Z,100388
2019-06-07T01:24:08.894Z,100386
2019-06-07T01:26:02.118Z,100385
2019-06-07T01:28:30.974Z,100377
2019-06-07T01:31:00.574Z,100380
2019-06-07T01:33:49.843Z,100378
2019-06-07T01:35:58.265Z,100379
2019-06-07T01:38:27.701Z,100378
2019-06-07T01:40:55.946Z,100368
2019-06-07T01:43:28.414Z,100374
2019-06-07T01:45:54.368Z,100368
2019-06-07T01:48:26.125Z,100371
2019-06-07T01:50:52.048Z,100371
2019-06-07T01:53:23.698Z,100375
2019-06-07T01:55:49.766Z,100376
2019-06-07T01:58:19.824Z,100377
2019-06-07T02:00:47.456Z,100366
2019-06-07T02:03:18.365Z,100356
2019-06-07T02:05:45.175Z,100365
2019-06-07T02:08:14.010Z,100354
2019-06-07T02:10:42.842Z,100363
2019-06-07T02:13:11.692Z,100359
2019-06-07T02:15:40.574Z,100361
2019-06-07T02:18:09.381Z,100360
2019-06-07T02:20:38.228Z,100357
2019-06-07T02:23:07.078Z,100356
2019-06-07T02:25:43.832Z,100355
2019-06-07T02:28:26.616Z,100346
2019-06-07T02:30:45.901Z,100345
2019-06-07T02:33:03.226Z,100335
2019-06-07T02:35:39.056Z,100337
2019-06-07T02:38:00.934Z,100333
2019-06-07T02:40:33.253Z,100321
2019-06-07T02:43:00.127Z,100317
2019-06-07T02:45:36.163Z,100311
2019-06-07T02:47:58.569Z,100316
2019-06-07T02:50:29.176Z,100320
2019-06-07T02:52:57.176Z,100315
2019-06-07T02:55:29.602Z,100309
2019-06-07T02:57:55.446Z,100304
2019-06-07T03:01:00.252Z,100300
2019-06-07T03:03:04.006Z,100302
2019-06-07T03:05:36.295Z,100300
2019-06-07T03:08:02.436Z,100293
2019-06-07T03:10:32.276Z,100291
2019-06-07T03:13:00.147Z,100297
2019-06-07T03:15:35.558Z,100300
2019-06-07T03:17:58.632Z,100300
2019-06-07T03:20:28.081Z,100301
2019-06-07T03:22:56.274Z,100298
2019-06-07T03:25:25.768Z,100300
2019-06-07T03:27:53.958Z,100300
2019-06-07T03:30:38.785Z,100298
2019-06-07T03:32:52.067Z,100294
2019-06-07T03:35:20.497Z,100285
2019-06-07T03:37:49.343Z,100292
2019-06-07T03:40:18.932Z,100280
2019-06-07T03:42:47.785Z,100282
2019-06-07T03:45:16.641Z,100286
2019-06-07T03:47:45.484Z,100286
2019-06-07T03:50:14.320Z,100284
2019-06-07T03:52:43.160Z,100277
2019-06-07T03:55:12.093Z,100277
2019-06-07T03:58:30.122Z,100274
2019-06-07T04:00:09.760Z,100272
2019-06-07T04:02:41.748Z,100284
2019-06-07T04:05:07.451Z,100278
2019-06-07T04:07:39.250Z,100271
2019-06-07T04:10:05.189Z,100270
2019-06-07T04:12:35.565Z,100261
2019-06-07T04:15:02.892Z,100250
2019-06-07T04:17:34.175Z,100251
2019-06-07T04:20:01.337Z,100252
2019-06-07T04:22:31.456Z,100246
2019-06-07T04:24:59.783Z,100245
2019-06-07T04:27:28.628Z,100238
2019-06-07T04:30:07.230Z,100243
2019-06-07T04:32:29.750Z,100236
2019-06-07T04:34:55.908Z,100231
2019-06-07T04:37:24.759Z,100233
2019-06-07T04:39:54.361Z,100227
2019-06-07T04:42:23.791Z,100229
2019-06-07T04:44:52.638Z,100223
2019-06-07T04:47:21.534Z,100224
2019-06-07T04:49:50.352Z,100227
2019-06-07T04:52:19.189Z,100220
2019-06-07T04:54:48.024Z,100209
2019-06-07T04:57:16.875Z,100219
2019-06-07T05:00:22.341Z,100210
2019-06-07T05:02:14.568Z,100211
2019-06-07T05:04:44.095Z,100208
2019-06-07T05:07:12.276Z,100209
2019-06-07T05:09:43.247Z,100197
2019-06-07T05:12:10.724Z,100205
2019-06-07T05:14:42.401Z,100205
2019-06-07T05:17:08.414Z,100204
2019-06-07T05:19:39.152Z,100199
2019-06-07T05:22:06.832Z,100200
2019-06-07T05:24:38.383Z,100207
2019-06-07T05:27:04.870Z,100192
2019-06-07T05:29:36.786Z,100194
2019-06-07T05:32:03.295Z,100191
2019-06-07T05:34:34.558Z,100187
2019-06-07T05:37:11.417Z,100188
2019-06-07T05:39:32.089Z,100183
2019-06-07T05:41:59.450Z,100182
2019-06-07T05:44:28.300Z,100179
2019-06-07T05:46:57.138Z,100184
2019-06-07T05:49:25.998Z,100179
2019-06-07T05:51:54.842Z,100177
2019-06-07T05:54:23.690Z,100168
2019-06-07T05:56:52.604Z,100181
2019-06-07T05:59:22.202Z,100181
2019-06-07T06:02:00.150Z,100178
2019-06-07T06:04:19.902Z,100181
2019-06-07T06:06:49.486Z,100180
2019-06-07T06:09:18.338Z,100184
2019-06-07T06:11:59.695Z,100184
2019-06-07T06:14:16.754Z,100182
2019-06-07T06:16:47.935Z,100180
2019-06-07T06:19:14.441Z,100180
2019-06-07T06:21:46.064Z,100178
2019-06-07T06:24:12.173Z,100174
2019-06-07T06:26:48.266Z,100182
2019-06-07T06:29:09.934Z,100178
2019-06-07T06:31:50.617Z,100169
2019-06-07T06:34:07.630Z,100183
2019-06-07T06:36:37.343Z,100166
2019-06-07T06:39:05.336Z,100168
2019-06-07T06:41:48.444Z,100162
2019-06-07T06:44:02.994Z,100160
2019-06-07T06:46:39.099Z,100165
2019-06-07T06:49:00.798Z,100161
2019-06-07T06:51:29.543Z,100161
2019-06-07T06:53:58.389Z,100159
2019-06-07T06:56:27.214Z,100153
2019-06-07T07:01:24.915Z,100165
2019-06-07T07:04:10.533Z,100155
2019-06-07T07:06:26.538Z,100147
2019-06-07T07:08:53.437Z,100143
2019-06-07T07:11:23.136Z,100140
2019-06-07T07:13:53.560Z,100140
2019-06-07T07:16:18.057Z,100142
2019-06-07T07:18:49.727Z,100138
2019-06-07T07:21:16.514Z,100126
2019-06-07T07:24:05.521Z,100121
2019-06-07T07:26:14.940Z,100114
2019-06-07T07:28:45.902Z,100112
2019-06-07T07:31:13.404Z,100104
2019-06-07T07:36:28.610Z,100100
2019-06-07T07:38:40.688Z,100094
2019-06-07T07:41:15.510Z,100088
2019-06-07T07:43:39.191Z,100087
2019-06-07T07:46:28.528Z,100080
2019-06-07T07:48:37.574Z,100078
2019-06-07T07:51:06.418Z,100073
2019-06-07T07:53:48.437Z,100069
2019-06-07T07:56:04.459Z,100052
2019-06-07T07:58:32.940Z,100059
2019-06-07T08:01:10.172Z,100051
2019-06-07T08:03:30.634Z,100049
2019-06-07T08:06:00.221Z,100045
2019-06-07T08:08:28.317Z,100046
2019-06-07T08:11:01.289Z,100042
2019-06-07T08:13:27.641Z,100039
2019-06-07T08:15:59.110Z,100043
2019-06-07T08:18:23.742Z,100038
2019-06-07T08:21:11.737Z,100040
2019-06-07T08:23:21.452Z,100035
2019-06-07T08:25:52.678Z,100029
2019-06-07T08:28:19.107Z,100028
2019-06-07T08:30:54.978Z,100019
2019-06-07T08:33:26.871Z,100020
2019-06-07T08:38:26.373Z,100015
2019-06-07T08:40:44.911Z,100013
2019-06-07T08:43:20.661Z,100011
2019-06-07T08:45:43.341Z,100016
2019-06-07T08:48:27.031Z,100012
2019-06-07T08:50:41.026Z,100011
2019-06-07T08:53:12.224Z,100015
2019-06-07T08:55:38.868Z,100010
2019-06-07T08:58:08.742Z,100009
2019-06-07T09:00:47.114Z,100004
2019-06-07T09:03:07.515Z,100002
2019-06-07T09:05:35.005Z,99993
2019-06-07T09:08:25.985Z,99985
2019-06-07T09:10:32.803Z,99975
2019-06-07T09:13:07.613Z,99981
2019-06-07T09:15:30.426Z,99980
2019-06-07T09:20:37.117Z,99972
2019-06-07T09:23:06.186Z,99977
2019-06-07T09:25:27.356Z,99973
2019-06-07T09:27:59.188Z,99972
2019-06-07T09:30:35.788Z,99962
2019-06-07T09:33:06.917Z,99962
2019-06-07T09:35:33.507Z,99956
2019-06-07T09:38:11.166Z,99950
2019-06-07T09:40:31.204Z,99950
2019-06-07T09:43:47.952Z,99939
2019-06-07T09:45:29.626Z,99939
2019-06-07T09:47:59.461Z,99942
2019-06-07T09:50:28.037Z,99940
2019-06-07T09:53:02.717Z,99936
2019-06-07T09:55:25.810Z,99925
2019-06-07T09:58:03.776Z,99922
2019-06-07T10:00:41.009Z,99920
2019-06-07T10:03:02.285Z,99925
2019-06-07T10:05:24.601Z,99911
2019-06-07T10:08:06.441Z,99906
2019-06-07T10:12:52.646Z,99913
2019-06-07T10:15:21.503Z,99911
2019-06-07T10:17:50.349Z,99901
2019-06-07T10:20:19.965Z,99897
2019-06-07T10:22:49.555Z,99890
2019-06-07T10:25:18.410Z,99894
2019-06-07T10:27:47.241Z,99890
2019-06-07T10:30:16.814Z,99888
2019-06-07T10:32:45.640Z,99882
2019-06-07T10:35:16.484Z,99886
2019-06-07T10:37:43.327Z,99884
2019-06-07T10:40:12.208Z,99882
2019-06-07T10:42:41.807Z,99869
2019-06-07T10:45:12.327Z,99874
2019-06-07T10:47:40.231Z,99877
2019-06-07T10:50:10.265Z,99870
2019-06-07T10:52:37.895Z,99876
2019-06-07T10:55:06.768Z,99867
2019-06-07T10:57:36.226Z,99859
2019-06-07T11:00:09.295Z,99850
2019-06-07T11:02:36.769Z,99849
2019-06-07T11:05:05.844Z,99853
2019-06-07T11:07:34.446Z,99850
2019-06-07T11:10:10.693Z,99846
2019-06-07T11:12:32.868Z,99837
2019-06-07T11:15:01.730Z,99828
2019-06-07T11:17:30.581Z,99832
2019-06-07T11:20:00.166Z,99825
2019-06-07T11:22:28.994Z,99821
2019-06-07T11:24:57.822Z,99802
2019-06-07T11:27:26.787Z,99807
2019-06-07T11:29:56.336Z,99811
2019-06-07T11:32:25.192Z,99811
2019-06-07T11:34:54.039Z,99798
2019-06-07T11:37:23.666Z,99795
2019-06-07T11:39:52.573Z,99791
2019-06-07T11:42:21.408Z,99789
2019-06-07T11:44:56.625Z,99791
2019-06-07T11:47:19.821Z,99788
2019-06-07T11:49:48.661Z,99787
2019-06-07T11:52:17.785Z,99784
2019-06-07T11:54:48.164Z,99781
2019-06-07T11:57:15.232Z,99786
2019-06-07T11:59:44.028Z,99781
2019-06-07T12:02:13.423Z,99776
2019-06-07T12:04:41.696Z,99770
2019-06-07T12:07:13.386Z,99775
2019-06-07T12:09:55.510Z,99765
2019-06-07T12:12:10.320Z,99761
2019-06-07T12:14:38.566Z,99757
2019-06-07T12:17:07.399Z,99762
2019-06-07T12:19:36.232Z,99756
2019-06-07T12:22:05.082Z,99751
2019-06-07T12:24:33.926Z,99738
2019-06-07T12:27:02.822Z,99738
2019-06-07T12:29:33.944Z,99729
2019-06-07T12:32:00.475Z,99739
2019-06-07T12:34:30.067Z,99732
2019-06-07T12:36:59.659Z,99722
2019-06-07T12:39:28.484Z,99727
2019-06-07T12:41:57.344Z,99732
2019-06-07T12:44:26.195Z,99731
2019-06-07T12:46:55.072Z,99731
2019-06-07T12:49:24.619Z,99720
2019-06-07T12:51:53.623Z,99711
2019-06-07T12:54:23.728Z,99705
2019-06-07T12:56:52.415Z,99702
2019-06-07T12:59:20.128Z,99714
2019-06-07T13:01:48.992Z,99709
2019-06-07T13:04:18.567Z,99712
2019-06-07T13:06:47.421Z,99719
2019-06-07T13:09:17.432Z,99720
2019-06-07T13:11:45.087Z,99719
2019-06-07T13:14:13.922Z,99712
2019-06-07T13:16:42.771Z,99707
2019-06-07T13:19:11.631Z,99705
2019-06-07T13:21:40.479Z,99701
2019-06-07T13:24:09.313Z,99696
2019-06-07T13:26:39.068Z,99696
2019-06-07T13:29:07.851Z,99700
2019-06-07T13:31:36.739Z,99683
2019-06-07T13:34:05.535Z,99675
2019-06-07T13:36:34.397Z,99674
2019-06-07T13:39:03.277Z,99677
2019-06-07T13:41:42.616Z,99671
2019-06-07T13:44:02.453Z,99672
2019-06-07T13:46:31.344Z,99669
2019-06-07T13:49:00.115Z,99658
2019-06-07T13:51:29.059Z,99650
2019-06-07T13:53:57.838Z,99645
2019-06-07T13:56:28.384Z,99636
2019-06-07T13:58:57.065Z,99639
2019-06-07T14:01:27.192Z,99632
2019-06-07T14:03:54.756Z,99628
2019-06-07T14:06:24.940Z,99628
2019-06-07T14:08:52.472Z,99623
2019-06-07T14:11:21.477Z,99619
2019-06-07T14:13:50.211Z,99628
2019-06-07T14:16:20.052Z,99627
2019-06-07T14:18:47.891Z,99630
2019-06-07T14:21:16.743Z,99620
2019-06-07T14:23:49.304Z,99612
2019-06-07T14:26:15.192Z,99609
2019-06-07T14:28:44.031Z,99609
2019-06-07T14:31:12.889Z,99601
2019-06-07T14:33:41.777Z,99605
2019-06-07T14:36:11.326Z,99598
2019-06-07T14:38:40.163Z,99596
2019-06-07T14:41:09.010Z,99603
2019-06-07T14:43:38.620Z,99603
2019-06-07T14:46:07.472Z,99604
2019-06-07T14:48:36.313Z,99611
2019-06-07T14:51:05.158Z,99605
2019-06-07T14:53:35.107Z,99613
2019-06-07T14:56:02.833Z,99632
2019-06-07T14:58:31.803Z,99636
2019-06-07T15:01:00.552Z,99641
2019-06-07T15:03:30.474Z,99644
2019-06-07T15:05:58.226Z,99643
2019-06-07T15:08:28.467Z,99635
2019-06-07T15:10:57.409Z,99647
2019-06-07T15:13:27.448Z,99632
2019-06-07T15:15:55.095Z,99623
2019-06-07T15:18:23.945Z,99623
2019-06-07T15:20:52.779Z,99614
2019-06-07T15:23:21.643Z,99638
2019-06-07T15:25:50.478Z,99639
2019-06-07T15:28:20.098Z,99654
2019-06-07T15:30:48.931Z,99647
2019-06-07T15:33:17.751Z,99645
2019-06-07T15:35:47.350Z,99644
2019-06-07T15:38:16.194Z,99624
2019-06-07T15:40:45.053Z,99628
2019-06-07T15:43:13.880Z,99633
2019-06-07T15:45:42.764Z,99636
2019-06-07T15:48:13.057Z,99614
2019-06-07T15:50:42.623Z,99611
2019-06-07T15:53:11.452Z,99611
2019-06-07T15:55:45.073Z,99608
2019-06-07T15:58:09.147Z,99644
2019-06-07T16:00:40.570Z,99660
2019-06-07T16:03:06.822Z,99684
2019-06-07T16:05:36.392Z,99697
2019-06-07T16:08:04.496Z,99728
2019-06-07T16:10:34.587Z,99754
2019-06-07T16:13:02.345Z,99772
2019-06-07T16:15:31.050Z,99788
2019-06-07T16:17:59.958Z,99780
2019-06-07T16:20:28.780Z,99788
2019-06-07T16:22:57.620Z,99800
2019-06-07T16:25:26.468Z,99812
2019-06-07T16:27:55.310Z,99811
2019-06-07T16:30:24.208Z,99846
2019-06-07T16:32:52.985Z,99852
2019-06-07T16:35:21.845Z,99855
2019-06-07T16:37:52.446Z,99828
2019-06-07T16:40:19.534Z,99794
2019-06-07T16:42:49.235Z,99789
2019-06-07T16:45:17.990Z,99811
2019-06-07T16:47:47.760Z,99829
2019-06-07T16:50:15.658Z,99828
2019-06-07T16:52:46.488Z,99898
2019-06-07T16:55:14.091Z,99940
2019-06-07T16:57:43.018Z,99945
2019-06-07T17:00:11.777Z,99948
2019-06-07T17:02:40.605Z,99961
2019-06-07T17:05:09.427Z,99974
2019-06-07T17:07:38.432Z,99998
2019-06-07T17:10:07.953Z,99988
2019-06-07T17:12:38.332Z,100010
2019-06-07T17:15:05.710Z,100013
2019-06-07T17:17:34.547Z,100032
2019-06-07T17:20:03.412Z,100042
2019-06-07T17:22:33.021Z,100044
2019-06-07T17:25:01.868Z,100040
2019-06-07T17:27:30.740Z,100062
2019-06-07T17:29:59.600Z,100073
2019-06-07T17:32:28.462Z,100077
2019-06-07T17:34:57.298Z,100039
2019-06-07T17:37:26.145Z,100043
2019-06-07T17:39:55.729Z,100068
2019-06-07T17:42:24.576Z,100081
2019-06-07T17:44:53.421Z,100116
2019-06-07T17:47:22.264Z,100128
2019-06-07T17:49:52.146Z,100132
2019-06-07T17:52:19.963Z,100136
2019-06-07T17:54:50.015Z,100148
2019-06-07T17:57:17.678Z,100181
2019-06-07T17:59:46.548Z,100209
2019-06-07T18:02:16.143Z,100199
2019-06-07T18:04:45.115Z,100183
2019-06-07T18:07:13.827Z,100176
2019-06-07T18:09:43.349Z,100182
2019-06-07T18:12:11.525Z,100169
2019-06-07T18:14:40.362Z,100209
2019-06-07T18:17:09.205Z,100242
2019-06-07T18:19:38.846Z,100228
2019-06-07T18:22:07.672Z,100195
2019-06-07T18:24:36.514Z,100217
2019-06-07T18:27:07.221Z,100206
2019-06-07T18:29:34.184Z,100260
2019-06-07T18:32:03.029Z,100275
2019-06-07T18:34:31.886Z,100311
2019-06-07T18:37:00.725Z,100311
2019-06-07T18:39:29.569Z,100297
2019-06-07T18:41:59.464Z,100293
2019-06-07T18:44:27.246Z,100284
2019-06-07T18:46:56.079Z,100318
2019-06-07T18:49:24.932Z,100322
2019-06-07T18:51:59.391Z,100347
2019-06-07T18:54:28.145Z,100346
2019-06-07T18:56:56.993Z,100325
2019-06-07T18:59:25.859Z,100333
2019-06-07T19:01:55.526Z,100357
2019-06-07T19:04:23.567Z,100367
2019-06-07T19:06:52.431Z,100346
2019-06-07T19:09:21.270Z,100326
2019-06-07T19:11:50.901Z,100319
2019-06-07T19:14:19.723Z,100349
2019-06-07T19:16:49.401Z,100356
2019-06-07T19:19:17.462Z,100358
2019-06-07T19:21:46.313Z,100379
2019-06-07T19:24:15.194Z,100361
2019-06-07T19:26:44.784Z,100358
2019-06-07T19:29:13.631Z,100348
2019-06-07T19:31:42.486Z,100365
2019-06-07T19:34:11.336Z,100365
2019-06-07T19:36:48.450Z,100360
2019-06-07T19:39:09.014Z,100358
2019-06-07T19:41:37.862Z,100349
2019-06-07T19:44:06.728Z,100344
2019-06-07T19:46:35.553Z,100330
2019-06-07T19:49:04.402Z,100320
2019-06-07T19:51:33.227Z,100304
2019-06-07T19:54:03.295Z,100308
2019-06-07T19:56:30.944Z,100314
2019-06-07T19:58:59.801Z,100330
2019-06-07T20:01:28.634Z,100373
2019-06-07T20:03:58.236Z,100373
2019-06-07T20:06:27.080Z,100372
2019-06-07T20:08:56.552Z,100360
2019-06-07T20:11:24.761Z,100354
2019-06-07T20:13:54.472Z,100360
2019-06-07T20:16:22.475Z,100373
2019-06-07T20:18:51.918Z,100409
2019-06-07T20:21:20.765Z,100407
2019-06-07T20:23:49.595Z,100423
2019-06-07T20:26:18.447Z,100404
2019-06-07T20:28:47.298Z,100412
2019-06-07T20:31:16.129Z,100426
2019-06-07T20:33:45.740Z,100423
2019-06-07T20:36:14.594Z,100420
2019-06-07T20:38:43.441Z,100426
2019-06-07T20:41:12.292Z,100457
2019-06-07T20:43:41.144Z,100485
2019-06-07T20:46:09.979Z,100483
2019-06-07T20:48:38.828Z,100471
2019-06-07T20:51:08.723Z,100486
2019-06-07T20:53:37.275Z,100483
2019-06-07T20:56:06.965Z,100486
2019-06-07T20:58:35.732Z,100507
2019-06-07T21:01:04.776Z,100522
2019-06-07T21:03:33.433Z,100509
2019-06-07T21:06:03.405Z,100501
2019-06-07T21:08:31.144Z,100491
2019-06-07T21:11:00.082Z,100473
2019-06-07T21:13:28.930Z,100468
2019-06-07T21:15:57.776Z,100484
2019-06-07T21:18:27.220Z,100484
2019-06-07T21:20:56.054Z,100476
2019-06-07T21:23:24.923Z,100467
2019-06-07T21:25:54.478Z,100452
2019-06-07T21:28:23.340Z,100434
2019-06-07T21:30:52.202Z,100416
2019-06-07T21:33:21.038Z,100417
2019-06-07T21:35:49.886Z,100424
2019-06-07T21:38:18.729Z,100426
2019-06-07T21:40:47.565Z,100441
2019-06-07T21:43:16.411Z,100449
2019-06-07T21:45:45.266Z,100432
2019-06-07T21:48:14.528Z,100420
2019-06-07T21:50:42.964Z,100433
2019-06-07T21:53:12.900Z,100441
2019-06-07T21:55:40.652Z,100471
2019-06-07T21:58:11.224Z,100477
2019-06-07T22:03:27.893Z,100487
2019-06-07T22:05:58.327Z,100496
2019-06-07T22:08:28.334Z,100501
2019-06-07T22:10:58.793Z,100509
2019-06-07T22:13:28.694Z,100504
2019-06-07T22:15:59.081Z,100528
2019-06-07T22:18:29.323Z,100541
2019-06-07T22:20:59.360Z,100558
2019-06-07T22:25:26.424Z,100557
2019-06-07T22:27:56.226Z,100560
2019-06-07T22:30:24.833Z,100559
2019-06-07T22:32:53.684Z,100547
2019-06-07T22:35:22.533Z,100562
2019-06-07T22:37:51.404Z,100542
2019-06-07T22:40:20.231Z,100529
2019-06-07T22:42:49.073Z,100544
2019-06-07T22:45:18.991Z,100546
2019-06-07T22:47:47.576Z,100559
2019-06-07T22:50:16.451Z,100552
2019-06-07T22:52:46.049Z,100565
2019-06-07T22:55:15.861Z,100576
2019-06-07T22:57:49.268Z,100570
2019-06-07T23:00:20.797Z,100583
2019-06-07T23:02:48.461Z,100581
2019-06-07T23:05:18.971Z,100582
2019-06-07T23:07:47.522Z,100589
2019-06-07T23:10:17.458Z,100576
2019-06-07T23:12:45.255Z,100571
2019-06-07T23:15:15.430Z,100565
2019-06-07T23:17:43.695Z,100569
2019-06-07T23:20:13.689Z,100564
2019-06-07T23:22:41.401Z,100577
2019-06-07T23:25:10.280Z,100574
2019-06-07T23:27:39.125Z,100593
2019-06-07T23:30:09.056Z,100593
2019-06-07T23:32:37.539Z,100599
2019-06-07T23:35:06.377Z,100581
2019-06-07T23:37:35.226Z,100571
2019-06-07T23:40:04.087Z,100565
2019-06-07T23:42:33.662Z,100576
2019-06-07T23:45:02.529Z,100567
2019-06-07T23:47:31.351Z,100569
2019-06-07T23:50:00.946Z,100560
2019-06-07T23:52:29.791Z,100557
2019-06-07T23:54:58.742Z,100566
2019-06-07T23:57:27.562Z,100581
2019-06-07T23:59:56.415Z,100568
